createdAt,value
2019-05-29T00:00:05.736Z,993.71
2019-05-29T00:01:08.679Z,993.76
2019-05-29T00:02:05.961Z,993.76
2019-05-29T00:03:04.469Z,993.82
2019-05-29T00:04:04.444Z,993.74
2019-05-29T00:05:04.454Z,993.77
2019-05-29T00:06:04.417Z,993.82
2019-05-29T00:07:04.442Z,993.83
2019-05-29T00:08:04.403Z,993.83
2019-05-29T00:09:04.396Z,993.88
2019-05-29T00:10:04.387Z,993.89
2019-05-29T00:11:04.363Z,993.86
2019-05-29T00:12:04.394Z,993.85
2019-05-29T00:13:04.349Z,993.90
2019-05-29T00:14:18.743Z,993.87
2019-05-29T00:15:06.177Z,993.91
2019-05-29T00:16:04.337Z,993.93
2019-05-29T00:17:04.318Z,993.94
2019-05-29T00:18:04.305Z,994.00
2019-05-29T00:19:04.288Z,993.96
2019-05-29T00:20:04.281Z,993.99
2019-05-29T00:21:04.264Z,993.95
2019-05-29T00:22:04.274Z,994.00
2019-05-29T00:23:04.254Z,993.98
2019-05-29T00:24:04.219Z,993.97
2019-05-29T00:25:04.216Z,994.00
2019-05-29T00:26:04.213Z,994.01
2019-05-29T00:27:05.291Z,994.04
2019-05-29T00:28:04.194Z,994.03
2019-05-29T00:29:05.543Z,994.07
2019-05-29T00:30:04.156Z,994.10
2019-05-29T00:31:04.165Z,994.10
2019-05-29T00:32:04.178Z,994.10
2019-05-29T00:33:04.141Z,994.06
2019-05-29T00:34:04.106Z,994.10
2019-05-29T00:35:04.152Z,994.08
2019-05-29T00:36:04.088Z,994.09
2019-05-29T00:37:04.085Z,994.11
2019-05-29T00:38:04.139Z,994.12
2019-05-29T00:39:04.068Z,994.12
2019-05-29T00:40:04.048Z,994.14
2019-05-29T00:41:04.047Z,994.13
2019-05-29T00:42:04.029Z,994.19
2019-05-29T00:43:04.048Z,994.14
2019-05-29T00:44:04.009Z,994.20
2019-05-29T00:45:04.015Z,994.21
2019-05-29T00:46:03.992Z,994.17
2019-05-29T00:47:04.031Z,994.21
2019-05-29T00:48:03.994Z,994.19
2019-05-29T00:49:03.954Z,994.25
2019-05-29T00:50:03.932Z,994.27
2019-05-29T00:51:03.939Z,994.26
2019-05-29T00:52:03.930Z,994.28
2019-05-29T00:53:03.936Z,994.24
2019-05-29T00:54:03.905Z,994.29
2019-05-29T00:55:03.900Z,994.32
2019-05-29T00:56:03.875Z,994.30
2019-05-29T00:57:03.868Z,994.31
2019-05-29T00:58:03.876Z,994.33
2019-05-29T00:59:03.841Z,994.26
2019-05-29T01:00:03.825Z,994.39
2019-05-29T01:01:03.835Z,994.38
2019-05-29T01:02:03.826Z,994.41
2019-05-29T01:03:03.823Z,994.37
2019-05-29T01:04:03.805Z,994.39
2019-05-29T01:05:03.791Z,994.40
2019-05-29T01:06:03.761Z,994.42
2019-05-29T01:07:03.752Z,994.42
2019-05-29T01:08:03.752Z,994.42
2019-05-29T01:09:03.752Z,994.46
2019-05-29T01:10:03.722Z,994.43
2019-05-29T01:11:03.727Z,994.44
2019-05-29T01:12:03.700Z,994.46
2019-05-29T01:13:03.720Z,994.43
2019-05-29T01:14:03.701Z,994.54
2019-05-29T01:15:03.681Z,994.43
2019-05-29T01:16:03.651Z,994.54
2019-05-29T01:17:03.663Z,994.49
2019-05-29T01:18:03.655Z,994.51
2019-05-29T01:19:03.627Z,994.49
2019-05-29T01:20:03.634Z,994.56
2019-05-29T01:21:03.611Z,994.53
2019-05-29T01:22:03.586Z,994.47
2019-05-29T01:23:03.601Z,994.55
2019-05-29T01:24:03.578Z,994.60
2019-05-29T01:25:03.562Z,994.55
2019-05-29T01:26:03.538Z,994.56
2019-05-29T01:27:03.645Z,994.58
2019-05-29T01:28:03.551Z,994.57
2019-05-29T01:29:03.578Z,994.60
2019-05-29T01:30:03.514Z,994.54
2019-05-29T01:31:03.487Z,994.59
2019-05-29T01:32:03.486Z,994.55
2019-05-29T01:33:03.514Z,994.57
2019-05-29T01:34:03.491Z,994.59
2019-05-29T01:35:03.448Z,994.53
2019-05-29T01:36:03.443Z,994.59
2019-05-29T01:37:03.423Z,994.57
2019-05-29T01:38:03.452Z,994.56
2019-05-29T01:39:03.411Z,994.58
2019-05-29T01:40:18.669Z,994.67
2019-05-29T01:41:04.378Z,994.61
2019-05-29T01:42:03.372Z,994.59
2019-05-29T01:43:03.388Z,994.60
2019-05-29T01:44:03.347Z,994.68
2019-05-29T01:45:07.903Z,994.71
2019-05-29T01:46:04.332Z,994.72
2019-05-29T01:47:03.309Z,994.66
2019-05-29T01:48:03.336Z,994.73
2019-05-29T01:49:03.304Z,994.74
2019-05-29T01:50:03.327Z,994.75
2019-05-29T01:51:03.295Z,994.78
2019-05-29T01:52:03.265Z,994.81
2019-05-29T01:53:03.274Z,994.80
2019-05-29T01:54:03.248Z,994.78
2019-05-29T01:55:03.227Z,994.83
2019-05-29T01:56:03.236Z,994.82
2019-05-29T01:57:03.236Z,994.84
2019-05-29T01:58:03.233Z,994.85
2019-05-29T01:59:03.202Z,994.83
2019-05-29T02:00:03.183Z,994.85
2019-05-29T02:01:03.167Z,994.91
2019-05-29T02:02:03.166Z,994.92
2019-05-29T02:03:03.184Z,995.01
2019-05-29T02:04:03.143Z,994.91
2019-05-29T02:05:03.130Z,994.97
2019-05-29T02:06:03.122Z,994.98
2019-05-29T02:07:03.107Z,994.96
2019-05-29T02:08:03.233Z,994.99
2019-05-29T02:09:03.066Z,994.94
2019-05-29T02:10:03.063Z,995.00
2019-05-29T02:11:03.044Z,995.00
2019-05-29T02:12:03.038Z,994.98
2019-05-29T02:13:03.179Z,995.07
2019-05-29T02:14:03.040Z,995.01
2019-05-29T02:15:02.999Z,995.01
2019-05-29T02:16:03.027Z,995.06
2019-05-29T02:17:02.985Z,995.06
2019-05-29T02:18:02.989Z,995.09
2019-05-29T02:19:03.100Z,995.06
2019-05-29T02:20:02.963Z,995.08
2019-05-29T02:21:02.951Z,995.08
2019-05-29T02:22:02.945Z,995.05
2019-05-29T02:23:02.935Z,995.12
2019-05-29T02:24:02.969Z,995.09
2019-05-29T02:25:02.904Z,995.08
2019-05-29T02:26:02.899Z,995.12
2019-05-29T02:27:02.871Z,995.14
2019-05-29T02:28:02.869Z,995.12
2019-05-29T02:29:02.881Z,995.18
2019-05-29T02:30:02.852Z,995.14
2019-05-29T02:31:02.842Z,995.18
2019-05-29T02:32:02.836Z,995.20
2019-05-29T02:33:02.799Z,995.17
2019-05-29T02:34:07.025Z,995.17
2019-05-29T02:35:02.795Z,995.15
2019-05-29T02:36:02.788Z,995.16
2019-05-29T02:37:02.770Z,995.16
2019-05-29T02:38:02.765Z,995.24
2019-05-29T02:39:02.764Z,995.21
2019-05-29T02:40:02.742Z,995.25
2019-05-29T02:41:02.744Z,995.20
2019-05-29T02:42:02.729Z,995.22
2019-05-29T02:43:02.725Z,995.22
2019-05-29T02:44:02.797Z,995.25
2019-05-29T02:45:02.683Z,995.25
2019-05-29T02:46:02.658Z,995.25
2019-05-29T02:47:02.660Z,995.24
2019-05-29T02:48:02.656Z,995.30
2019-05-29T02:49:02.742Z,995.32
2019-05-29T02:50:02.626Z,995.29
2019-05-29T02:51:02.615Z,995.30
2019-05-29T02:52:02.594Z,995.28
2019-05-29T02:53:02.602Z,995.38
2019-05-29T02:54:02.627Z,995.40
2019-05-29T02:55:02.570Z,995.38
2019-05-29T02:56:02.559Z,995.41
2019-05-29T02:57:02.553Z,995.41
2019-05-29T02:58:02.542Z,995.45
2019-05-29T02:59:02.613Z,995.45
2019-05-29T03:00:02.546Z,995.47
2019-05-29T03:01:02.511Z,995.46
2019-05-29T03:02:02.529Z,995.52
2019-05-29T03:03:02.493Z,995.52
2019-05-29T03:04:02.498Z,995.50
2019-05-29T03:05:02.478Z,995.56
2019-05-29T03:06:02.454Z,995.50
2019-05-29T03:07:02.466Z,995.52
2019-05-29T03:08:02.430Z,995.61
2019-05-29T03:09:02.464Z,995.59
2019-05-29T03:10:02.413Z,995.63
2019-05-29T03:11:02.403Z,995.60
2019-05-29T03:12:02.393Z,995.66
2019-05-29T03:13:02.383Z,995.65
2019-05-29T03:14:02.623Z,995.68
2019-05-29T03:15:02.360Z,995.67
2019-05-29T03:16:10.389Z,995.69
2019-05-29T03:17:03.330Z,995.63
2019-05-29T03:18:02.340Z,995.65
2019-05-29T03:19:02.679Z,995.71
2019-05-29T03:20:02.301Z,995.69
2019-05-29T03:21:02.299Z,995.70
2019-05-29T03:22:02.294Z,995.71
2019-05-29T03:23:02.279Z,995.78
2019-05-29T03:24:02.296Z,995.77
2019-05-29T03:25:02.259Z,995.77
2019-05-29T03:26:02.240Z,995.78
2019-05-29T03:27:02.248Z,995.83
2019-05-29T03:28:02.220Z,995.81
2019-05-29T03:29:02.236Z,995.87
2019-05-29T03:30:02.201Z,995.85
2019-05-29T03:31:02.182Z,995.85
2019-05-29T03:32:02.194Z,995.88
2019-05-29T03:33:02.170Z,995.93
2019-05-29T03:34:02.274Z,995.97
2019-05-29T03:35:02.200Z,995.96
2019-05-29T03:36:02.160Z,996.00
2019-05-29T03:37:02.147Z,995.96
2019-05-29T03:38:02.103Z,995.95
2019-05-29T03:39:02.083Z,996.01
2019-05-29T03:40:02.135Z,995.96
2019-05-29T03:41:02.070Z,996.00
2019-05-29T03:42:02.067Z,996.00
2019-05-29T03:43:02.076Z,996.00
2019-05-29T03:44:02.044Z,996.08
2019-05-29T03:45:02.121Z,996.05
2019-05-29T03:46:02.037Z,996.08
2019-05-29T03:47:02.019Z,996.03
2019-05-29T03:48:02.009Z,996.06
2019-05-29T03:49:02.042Z,995.95
2019-05-29T03:50:01.975Z,996.07
2019-05-29T03:51:01.986Z,996.01
2019-05-29T03:52:01.960Z,996.02
2019-05-29T03:53:02.005Z,996.01
2019-05-29T03:54:02.021Z,996.06
2019-05-29T03:55:01.998Z,996.06
2019-05-29T03:56:01.922Z,996.03
2019-05-29T03:57:01.912Z,996.06
2019-05-29T03:58:01.883Z,996.08
2019-05-29T03:59:01.911Z,996.11
2019-05-29T04:00:01.882Z,996.14
2019-05-29T04:01:01.867Z,996.11
2019-05-29T04:02:01.843Z,996.07
2019-05-29T04:03:01.848Z,996.10
2019-05-29T04:04:01.843Z,996.04
2019-05-29T04:05:01.819Z,996.06
2019-05-29T04:06:01.819Z,996.12
2019-05-29T04:07:01.797Z,996.08
2019-05-29T04:08:01.782Z,996.11
2019-05-29T04:09:01.810Z,996.13
2019-05-29T04:10:01.766Z,996.12
2019-05-29T04:11:01.755Z,996.13
2019-05-29T04:12:01.767Z,996.16
2019-05-29T04:13:01.721Z,996.17
2019-05-29T04:14:01.745Z,996.15
2019-05-29T04:15:01.743Z,996.15
2019-05-29T04:16:01.693Z,996.12
2019-05-29T04:17:01.670Z,996.13
2019-05-29T04:18:01.676Z,996.19
2019-05-29T04:19:01.678Z,996.16
2019-05-29T04:20:01.694Z,996.27
2019-05-29T04:21:01.652Z,996.23
2019-05-29T04:22:01.636Z,996.18
2019-05-29T04:23:01.613Z,996.26
2019-05-29T04:24:01.637Z,996.22
2019-05-29T04:25:01.616Z,996.30
2019-05-29T04:26:01.581Z,996.31
2019-05-29T04:27:01.559Z,996.30
2019-05-29T04:28:01.570Z,996.34
2019-05-29T04:29:01.707Z,996.32
2019-05-29T04:30:01.548Z,996.38
2019-05-29T04:31:01.529Z,996.34
2019-05-29T04:32:01.542Z,996.41
2019-05-29T04:33:01.504Z,996.36
2019-05-29T04:34:01.483Z,996.41
2019-05-29T04:35:01.518Z,996.37
2019-05-29T04:36:01.458Z,996.48
2019-05-29T04:37:01.458Z,996.50
2019-05-29T04:38:01.443Z,996.48
2019-05-29T04:39:01.450Z,996.48
2019-05-29T04:40:01.669Z,996.56
2019-05-29T04:41:01.435Z,996.58
2019-05-29T04:42:01.422Z,996.58
2019-05-29T04:43:01.403Z,996.65
2019-05-29T04:44:01.437Z,996.59
2019-05-29T04:45:01.376Z,996.61
2019-05-29T04:46:01.377Z,996.67
2019-05-29T04:47:10.985Z,996.73
2019-05-29T04:48:02.377Z,996.77
2019-05-29T04:49:01.360Z,996.72
2019-05-29T04:50:01.343Z,996.75
2019-05-29T04:51:01.309Z,996.72
2019-05-29T04:52:01.290Z,996.76
2019-05-29T04:53:01.292Z,996.77
2019-05-29T04:54:01.258Z,996.81
2019-05-29T04:55:01.285Z,996.86
2019-05-29T04:56:01.231Z,996.83
2019-05-29T04:57:01.238Z,996.77
2019-05-29T04:58:01.210Z,996.85
2019-05-29T04:59:01.200Z,996.89
2019-05-29T05:00:01.249Z,996.89
2019-05-29T05:01:01.199Z,996.89
2019-05-29T05:02:01.165Z,996.92
2019-05-29T05:03:01.179Z,996.96
2019-05-29T05:04:01.146Z,996.96
2019-05-29T05:05:01.265Z,996.95
2019-05-29T05:06:01.129Z,996.98
2019-05-29T05:07:01.139Z,997.04
2019-05-29T05:08:01.126Z,997.01
2019-05-29T05:09:01.098Z,997.07
2019-05-29T05:10:01.112Z,997.09
2019-05-29T05:11:01.075Z,997.02
2019-05-29T05:12:01.079Z,997.09
2019-05-29T05:13:01.051Z,997.08
2019-05-29T05:14:01.724Z,997.09
2019-05-29T05:15:01.100Z,997.07
2019-05-29T05:16:01.033Z,997.12
2019-05-29T05:17:01.005Z,997.09
2019-05-29T05:18:01.012Z,997.14
2019-05-29T05:19:00.996Z,997.06
2019-05-29T05:20:01.023Z,997.08
2019-05-29T05:21:00.977Z,997.17
2019-05-29T05:22:00.971Z,997.15
2019-05-29T05:23:00.966Z,997.20
2019-05-29T05:24:00.935Z,997.20
2019-05-29T05:25:00.951Z,997.21
2019-05-29T05:26:00.947Z,997.16
2019-05-29T05:27:00.916Z,997.23
2019-05-29T05:28:00.902Z,997.27
2019-05-29T05:29:00.892Z,997.28
2019-05-29T05:30:00.897Z,997.24
2019-05-29T05:31:00.865Z,997.24
2019-05-29T05:32:00.852Z,997.21
2019-05-29T05:33:00.855Z,997.29
2019-05-29T05:34:00.837Z,997.25
2019-05-29T05:35:00.862Z,997.26
2019-05-29T05:36:00.812Z,997.32
2019-05-29T05:37:00.792Z,997.31
2019-05-29T05:38:00.787Z,997.32
2019-05-29T05:39:00.786Z,997.36
2019-05-29T05:40:00.791Z,997.38
2019-05-29T05:41:00.757Z,997.35
2019-05-29T05:42:00.760Z,997.39
2019-05-29T05:43:00.766Z,997.37
2019-05-29T05:44:00.728Z,997.31
2019-05-29T05:45:00.749Z,997.40
2019-05-29T05:46:00.718Z,997.30
2019-05-29T05:47:00.691Z,997.37
2019-05-29T05:48:00.718Z,997.35
2019-05-29T05:49:00.669Z,997.40
2019-05-29T05:50:00.687Z,997.37
2019-05-29T05:51:00.648Z,997.41
2019-05-29T05:52:00.630Z,997.27
2019-05-29T05:53:00.632Z,997.33
2019-05-29T05:54:00.621Z,997.39
2019-05-29T05:55:00.632Z,997.43
2019-05-29T05:56:00.591Z,997.44
2019-05-29T05:57:00.570Z,997.53
2019-05-29T05:58:00.562Z,997.60
2019-05-29T05:59:00.600Z,997.65
2019-05-29T06:00:00.536Z,997.63
2019-05-29T06:01:00.563Z,997.69
2019-05-29T06:02:00.544Z,997.66
2019-05-29T06:03:00.495Z,997.68
2019-05-29T06:04:00.486Z,997.73
2019-05-29T06:05:00.493Z,997.72
2019-05-29T06:06:00.517Z,997.71
2019-05-29T06:07:00.490Z,997.70
2019-05-29T06:08:00.485Z,997.75
2019-05-29T06:09:00.434Z,997.78
2019-05-29T06:10:00.435Z,997.69
2019-05-29T06:11:00.499Z,997.76
2019-05-29T06:12:00.418Z,997.78
2019-05-29T06:13:00.416Z,997.74
2019-05-29T06:14:00.433Z,997.78
2019-05-29T06:15:00.386Z,997.76
2019-05-29T06:16:00.436Z,997.82
2019-05-29T06:17:00.376Z,997.84
2019-05-29T06:18:19.552Z,997.75
2019-05-29T06:19:01.346Z,997.82
2019-05-29T06:20:00.333Z,997.86
2019-05-29T06:21:00.376Z,997.92
2019-05-29T06:22:00.334Z,997.87
2019-05-29T06:23:00.328Z,997.96
2019-05-29T06:24:00.289Z,997.98
2019-05-29T06:25:00.274Z,997.92
2019-05-29T06:26:00.341Z,997.94
2019-05-29T06:27:00.264Z,997.99
2019-05-29T06:28:00.273Z,997.99
2019-05-29T06:29:00.254Z,997.98
2019-05-29T06:30:00.227Z,997.96
2019-05-29T06:31:00.230Z,997.97
2019-05-29T06:32:00.206Z,998.06
2019-05-29T06:33:00.205Z,998.07
2019-05-29T06:34:00.181Z,998.01
2019-05-29T06:35:00.193Z,997.98
2019-05-29T06:36:00.205Z,998.06
2019-05-29T06:37:00.159Z,998.09
2019-05-29T06:38:00.155Z,998.17
2019-05-29T06:39:00.136Z,998.17
2019-05-29T06:40:00.200Z,998.16
2019-05-29T06:41:00.151Z,998.15
2019-05-29T06:42:00.093Z,998.20
2019-05-29T06:43:00.091Z,998.09
2019-05-29T06:44:00.086Z,998.22
2019-05-29T06:45:00.104Z,998.14
2019-05-29T06:46:00.097Z,998.14
2019-05-29T06:47:00.048Z,998.20
2019-05-29T06:48:00.060Z,998.13
2019-05-29T06:49:01.010Z,998.13
2019-05-29T06:50:00.030Z,998.20
2019-05-29T06:51:00.048Z,998.22
2019-05-29T06:52:00.017Z,998.20
2019-05-29T06:52:59.992Z,998.22
2019-05-29T06:54:00.009Z,998.25
2019-05-29T06:55:00.015Z,998.27
2019-05-29T06:56:01.453Z,998.25
2019-05-29T06:56:59.965Z,998.30
2019-05-29T06:57:59.957Z,998.32
2019-05-29T06:58:59.940Z,998.37
2019-05-29T06:59:59.951Z,998.30
2019-05-29T07:00:59.941Z,998.30
2019-05-29T07:01:59.934Z,998.26
2019-05-29T07:02:59.941Z,998.32
2019-05-29T07:04:11.082Z,998.33
2019-05-29T07:05:00.909Z,998.29
2019-05-29T07:05:59.918Z,998.30
2019-05-29T07:06:59.893Z,998.36
2019-05-29T07:08:16.506Z,998.30
2019-05-29T07:09:00.874Z,998.37
2019-05-29T07:09:59.862Z,998.38
2019-05-29T07:10:59.847Z,998.35
2019-05-29T07:11:59.920Z,998.32
2019-05-29T07:12:59.840Z,998.35
2019-05-29T07:13:59.839Z,998.39
2019-05-29T07:14:59.886Z,998.37
2019-05-29T07:15:59.788Z,998.42
2019-05-29T07:16:59.844Z,998.39
2019-05-29T07:17:59.768Z,998.34
2019-05-29T07:20:03.985Z,998.43
2019-05-29T07:20:59.782Z,998.37
2019-05-29T07:21:59.830Z,998.39
2019-05-29T07:22:59.754Z,998.44
2019-05-29T07:23:59.762Z,998.44
2019-05-29T07:24:59.722Z,998.47
2019-05-29T07:25:59.712Z,998.51
2019-05-29T07:26:59.748Z,998.44
2019-05-29T07:27:59.707Z,998.49
2019-05-29T07:29:08.054Z,998.47
2019-05-29T07:30:00.679Z,998.51
2019-05-29T07:31:03.074Z,998.56
2019-05-29T07:31:59.672Z,998.55
2019-05-29T07:32:59.634Z,998.56
2019-05-29T07:33:59.633Z,998.59
2019-05-29T07:35:03.645Z,998.61
2019-05-29T07:35:59.613Z,998.64
2019-05-29T07:36:59.634Z,998.62
2019-05-29T07:37:59.581Z,998.63
2019-05-29T07:39:03.705Z,998.57
2019-05-29T07:39:59.568Z,998.65
2019-05-29T07:40:59.637Z,998.64
2019-05-29T07:41:59.570Z,998.68
2019-05-29T07:42:59.541Z,998.70
2019-05-29T07:43:59.538Z,998.61
2019-05-29T07:44:59.538Z,998.66
2019-05-29T07:45:59.524Z,998.63
2019-05-29T07:46:59.569Z,998.55
2019-05-29T07:47:59.516Z,998.54
2019-05-29T07:48:59.616Z,998.54
2019-05-29T07:49:59.486Z,998.58
2019-05-29T07:51:07.140Z,998.64
2019-05-29T07:52:00.505Z,998.58
2019-05-29T07:52:59.511Z,998.57
2019-05-29T07:53:59.444Z,998.62
2019-05-29T07:54:59.437Z,998.65
2019-05-29T07:55:59.395Z,998.71
2019-05-29T07:56:59.439Z,998.56
2019-05-29T07:57:59.417Z,998.65
2019-05-29T07:59:02.886Z,998.63
2019-05-29T07:59:59.411Z,998.65
2019-05-29T08:01:12.208Z,998.34
2019-05-29T08:02:00.430Z,998.64
2019-05-29T08:02:59.354Z,998.68
2019-05-29T08:03:59.347Z,998.70
2019-05-29T08:04:59.325Z,998.36
2019-05-29T08:05:59.345Z,998.47
2019-05-29T08:06:59.349Z,998.40
2019-05-29T08:07:59.321Z,998.65
2019-05-29T08:08:59.296Z,998.69
2019-05-29T08:09:59.278Z,998.65
2019-05-29T08:10:59.306Z,998.72
2019-05-29T08:11:59.285Z,998.70
2019-05-29T08:12:59.271Z,998.66
2019-05-29T08:13:59.252Z,998.79
2019-05-29T08:14:59.244Z,998.78
2019-05-29T08:16:03.114Z,998.80
2019-05-29T08:16:59.227Z,998.79
2019-05-29T08:17:59.265Z,998.83
2019-05-29T08:18:59.931Z,998.80
2019-05-29T08:20:06.603Z,998.78
2019-05-29T08:21:00.194Z,998.81
2019-05-29T08:21:59.184Z,998.81
2019-05-29T08:22:59.226Z,998.80
2019-05-29T08:23:59.171Z,998.74
2019-05-29T08:24:59.157Z,998.77
2019-05-29T08:25:59.152Z,998.81
2019-05-29T08:26:59.157Z,998.79
2019-05-29T08:27:59.147Z,998.78
2019-05-29T08:28:59.113Z,998.81
2019-05-29T08:29:59.107Z,998.78
2019-05-29T08:30:59.093Z,998.86
2019-05-29T08:31:59.086Z,998.82
2019-05-29T08:32:59.082Z,998.81
2019-05-29T08:33:59.142Z,998.79
2019-05-29T08:34:59.092Z,998.78
2019-05-29T08:36:00.364Z,998.80
2019-05-29T08:37:06.687Z,998.84
2019-05-29T08:38:00.047Z,998.83
2019-05-29T08:38:59.031Z,998.84
2019-05-29T08:39:59.017Z,998.85
2019-05-29T08:40:59.007Z,998.82
2019-05-29T08:42:21.505Z,998.83
2019-05-29T08:42:59.994Z,998.81
2019-05-29T08:43:58.970Z,998.83
2019-05-29T08:44:58.969Z,998.84
2019-05-29T08:45:58.985Z,998.85
2019-05-29T08:47:09.701Z,998.80
2019-05-29T08:47:59.983Z,998.80
2019-05-29T08:48:58.923Z,998.80
2019-05-29T08:50:16.660Z,998.83
2019-05-29T08:50:59.908Z,998.86
2019-05-29T08:52:11.375Z,998.87
2019-05-29T08:53:02.505Z,998.83
2019-05-29T08:53:58.889Z,998.83
2019-05-29T08:54:58.876Z,998.81
2019-05-29T08:55:58.887Z,998.78
2019-05-29T08:56:58.832Z,998.82
2019-05-29T08:57:58.891Z,998.78
2019-05-29T08:58:58.820Z,998.81
2019-05-29T08:59:58.835Z,998.81
2019-05-29T09:00:58.846Z,998.82
2019-05-29T09:01:58.799Z,998.80
2019-05-29T09:02:58.793Z,998.86
2019-05-29T09:03:58.775Z,998.79
2019-05-29T09:04:58.779Z,998.92
2019-05-29T09:06:08.356Z,998.85
2019-05-29T09:07:00.038Z,998.84
2019-05-29T09:07:58.811Z,998.82
2019-05-29T09:08:58.737Z,998.77
2019-05-29T09:09:58.727Z,998.76
2019-05-29T09:10:58.857Z,998.78
2019-05-29T09:11:58.703Z,998.81
2019-05-29T09:13:04.848Z,998.83
2019-05-29T09:13:59.706Z,998.83
2019-05-29T09:14:58.792Z,998.79
2019-05-29T09:15:58.694Z,998.79
2019-05-29T09:16:58.738Z,998.78
2019-05-29T09:17:58.657Z,998.74
2019-05-29T09:18:58.641Z,998.88
2019-05-29T09:19:58.637Z,998.88
2019-05-29T09:21:03.374Z,998.83
2019-05-29T09:21:59.611Z,998.83
2019-05-29T09:22:58.637Z,998.75
2019-05-29T09:23:59.163Z,998.78
2019-05-29T09:24:58.586Z,998.80
2019-05-29T09:26:13.621Z,998.76
2019-05-29T09:26:59.561Z,998.79
2019-05-29T09:27:58.561Z,998.83
2019-05-29T09:28:58.588Z,998.78
2019-05-29T09:29:58.527Z,998.76
2019-05-29T09:30:58.521Z,998.72
2019-05-29T09:31:58.499Z,998.76
2019-05-29T09:32:58.507Z,998.80
2019-05-29T09:33:58.506Z,998.81
2019-05-29T09:34:58.495Z,998.76
2019-05-29T09:35:58.495Z,998.81
2019-05-29T09:36:58.523Z,998.84
2019-05-29T09:37:58.451Z,998.82
2019-05-29T09:38:58.463Z,998.75
2019-05-29T09:39:58.423Z,998.87
2019-05-29T09:40:58.426Z,998.83
2019-05-29T09:41:58.425Z,998.86
2019-05-29T09:42:58.407Z,998.73
2019-05-29T09:44:00.220Z,998.84
2019-05-29T09:44:58.383Z,998.82
2019-05-29T09:46:02.062Z,998.84
2019-05-29T09:46:58.378Z,998.75
2019-05-29T09:47:58.353Z,998.83
2019-05-29T09:49:01.400Z,998.84
2019-05-29T09:49:58.333Z,998.84
2019-05-29T09:50:58.351Z,998.87
2019-05-29T09:51:58.331Z,998.86
2019-05-29T09:52:59.004Z,998.89
2019-05-29T09:53:59.582Z,998.85
2019-05-29T09:54:58.391Z,998.83
2019-05-29T09:55:59.082Z,998.84
2019-05-29T09:56:59.459Z,998.76
2019-05-29T09:57:58.697Z,998.77
2019-05-29T09:58:59.769Z,998.84
2019-05-29T09:59:59.936Z,998.80
2019-05-29T10:01:18.599Z,998.78
2019-05-29T10:02:00.363Z,998.75
2019-05-29T10:02:59.498Z,998.79
2019-05-29T10:04:00.064Z,998.83
2019-05-29T10:05:00.448Z,998.77
2019-05-29T10:05:59.373Z,998.80
2019-05-29T10:06:59.438Z,998.80
2019-05-29T10:07:59.616Z,998.84
2019-05-29T10:08:58.599Z,998.84
2019-05-29T10:09:59.274Z,998.84
2019-05-29T10:11:06.860Z,998.89
2019-05-29T10:12:03.444Z,998.82
2019-05-29T10:13:00.021Z,998.80
2019-05-29T10:13:58.827Z,998.86
2019-05-29T10:14:58.938Z,998.85
2019-05-29T10:15:59.106Z,998.84
2019-05-29T10:16:59.314Z,998.85
2019-05-29T10:17:58.536Z,998.86
2019-05-29T10:18:59.803Z,998.83
2019-05-29T10:19:58.986Z,998.91
2019-05-29T10:20:59.561Z,998.87
2019-05-29T10:22:00.101Z,998.90
2019-05-29T10:22:58.968Z,998.93
2019-05-29T10:23:59.514Z,998.94
2019-05-29T10:24:58.719Z,998.91
2019-05-29T10:25:58.805Z,998.95
2019-05-29T10:26:59.045Z,998.91
2019-05-29T10:27:57.962Z,998.96
2019-05-29T10:29:07.802Z,998.95
2019-05-29T10:29:58.940Z,998.95
2019-05-29T10:31:02.911Z,998.93
2019-05-29T10:31:58.969Z,998.96
2019-05-29T10:32:57.925Z,998.99
2019-05-29T10:33:57.900Z,998.98
2019-05-29T10:34:57.889Z,998.96
2019-05-29T10:35:57.900Z,998.96
2019-05-29T10:36:57.885Z,998.93
2019-05-29T10:37:57.875Z,998.91
2019-05-29T10:38:57.860Z,998.95
2019-05-29T10:39:57.842Z,998.91
2019-05-29T10:41:06.260Z,998.92
2019-05-29T10:41:58.866Z,998.92
2019-05-29T10:42:57.819Z,998.92
2019-05-29T10:43:57.810Z,998.93
2019-05-29T10:44:57.801Z,998.90
2019-05-29T10:45:57.811Z,998.86
2019-05-29T10:46:57.812Z,998.90
2019-05-29T10:47:57.771Z,998.91
2019-05-29T10:48:57.770Z,998.88
2019-05-29T10:49:57.750Z,998.89
2019-05-29T10:50:57.742Z,998.92
2019-05-29T10:52:10.902Z,998.87
2019-05-29T10:52:58.723Z,998.95
2019-05-29T10:53:59.095Z,998.93
2019-05-29T10:54:57.679Z,998.86
2019-05-29T10:55:57.691Z,998.91
2019-05-29T10:56:57.704Z,998.87
2019-05-29T10:57:57.673Z,998.80
2019-05-29T10:58:59.934Z,998.87
2019-05-29T10:59:57.691Z,998.84
2019-05-29T11:00:57.662Z,998.82
2019-05-29T11:01:57.654Z,998.82
2019-05-29T11:02:57.867Z,998.83
2019-05-29T11:03:57.612Z,998.85
2019-05-29T11:04:59.556Z,998.79
2019-05-29T11:05:57.596Z,998.77
2019-05-29T11:06:57.595Z,998.78
2019-05-29T11:07:57.566Z,998.78
2019-05-29T11:08:57.571Z,998.79
2019-05-29T11:09:57.555Z,998.75
2019-05-29T11:10:57.517Z,998.75
2019-05-29T11:11:57.842Z,998.65
2019-05-29T11:12:57.544Z,998.74
2019-05-29T11:13:57.507Z,998.74
2019-05-29T11:14:57.501Z,998.74
2019-05-29T11:15:57.484Z,998.73
2019-05-29T11:16:57.713Z,998.61
2019-05-29T11:17:57.863Z,998.69
2019-05-29T11:18:57.713Z,998.68
2019-05-29T11:19:58.236Z,998.72
2019-05-29T11:20:57.657Z,998.71
2019-05-29T11:22:01.704Z,998.67
2019-05-29T11:22:58.442Z,998.68
2019-05-29T11:23:58.165Z,998.65
2019-05-29T11:24:58.435Z,998.64
2019-05-29T11:25:58.396Z,998.61
2019-05-29T11:26:58.582Z,998.63
2019-05-29T11:27:58.563Z,998.61
2019-05-29T11:28:58.623Z,998.62
2019-05-29T11:29:58.769Z,998.65
2019-05-29T11:30:57.323Z,998.68
2019-05-29T11:31:57.355Z,998.64
2019-05-29T11:33:00.473Z,998.56
2019-05-29T11:33:57.345Z,998.64
2019-05-29T11:34:57.586Z,998.63
2019-05-29T11:36:09.208Z,998.61
2019-05-29T11:36:58.380Z,998.55
2019-05-29T11:37:58.724Z,998.58
2019-05-29T11:39:01.390Z,998.57
2019-05-29T11:39:59.019Z,998.56
2019-05-29T11:41:22.809Z,998.58
2019-05-29T11:41:58.914Z,998.57
2019-05-29T11:42:57.235Z,998.56
2019-05-29T11:43:57.250Z,998.52
2019-05-29T11:44:57.201Z,998.53
2019-05-29T11:45:57.415Z,998.52
2019-05-29T11:46:58.198Z,998.55
2019-05-29T11:47:59.165Z,998.52
2019-05-29T11:48:57.394Z,998.57
2019-05-29T11:50:07.676Z,998.59
2019-05-29T11:50:58.307Z,998.51
2019-05-29T11:52:18.673Z,998.53
2019-05-29T11:52:58.561Z,998.53
2019-05-29T11:53:57.555Z,998.54
2019-05-29T11:54:59.968Z,998.53
2019-05-29T11:55:58.140Z,998.47
2019-05-29T11:56:57.428Z,998.50
2019-05-29T11:57:57.937Z,998.49
2019-05-29T11:58:57.265Z,998.44
2019-05-29T12:00:01.262Z,998.47
2019-05-29T12:00:59.136Z,998.46
2019-05-29T12:01:58.569Z,998.45
2019-05-29T12:02:57.748Z,998.44
2019-05-29T12:04:18.521Z,998.49
2019-05-29T12:05:00.719Z,998.45
2019-05-29T12:05:59.056Z,998.47
2019-05-29T12:06:57.574Z,998.48
2019-05-29T12:07:57.545Z,998.44
2019-05-29T12:08:57.919Z,998.43
2019-05-29T12:09:57.543Z,998.49
2019-05-29T12:10:57.392Z,998.46
2019-05-29T12:11:57.962Z,998.43
2019-05-29T12:12:57.585Z,998.46
2019-05-29T12:13:58.024Z,998.47
2019-05-29T12:15:05.944Z,998.52
2019-05-29T12:15:57.866Z,998.52
2019-05-29T12:16:58.215Z,998.42
2019-05-29T12:18:19.161Z,998.42
2019-05-29T12:18:57.890Z,998.47
2019-05-29T12:19:59.384Z,998.50
2019-05-29T12:20:58.302Z,998.50
2019-05-29T12:21:58.228Z,998.43
2019-05-29T12:23:18.901Z,998.39
2019-05-29T12:23:58.238Z,998.40
2019-05-29T12:24:56.788Z,998.38
2019-05-29T12:26:18.823Z,998.38
2019-05-29T12:26:58.533Z,998.40
2019-05-29T12:27:57.368Z,998.39
2019-05-29T12:29:03.730Z,998.38